Atlanta, Georgia
Traffic Map
Current Weather Conditions
Atlanta, Georgia
Clear
Clear
10°
Feels Like: 10°
Wind Chill: 10° Ceiling: Unl
Heat Index: 10° Visibility: 10mi
Dew Point: -3° Wind: 10mph
Humidity: 41% Direction: 90° (E)
Pressure: 30.3in Gusts: 0mph
Raw Report DataKATL 161552Z 09009KT 10SM CLR 10/M03 A3030 RMK AO2 SLP263 T01001028
Traffic Incident Summary
Active as of:
Severity:
Category:
InformationThere was an issue retrieving the traffic information for this location. Please try a different location or try again shortly.
Advertisements
At Last! Intellicast now available for iPhone and Android